Time;durP1;ratioP1;P1;durP2;ratioP2;P2;SDS_P1;SDS_P2;PMS_P1;PMS_P2;Temp;Humidity;BMP_temperature;BMP_pressure;BME280_temperature;BME280_humidity;BME280_pressure;Samples;Min_cycle;Max_cycle;Signal;HPM_P1;HPM_P2
2021/06/10 00:00:50;;;;;;;10.97;8.57;;;15.80;99.90;;;;;;5046463;28;20461;-74
2021/06/10 00:03:16;;;;;;;12.97;9.40;;;15.80;99.90;;;;;;5035437;28;20498;-70
2021/06/10 00:05:42;;;;;;;12.53;8.70;;;15.70;99.90;;;;;;5053365;28;20204;-73
2021/06/10 00:08:10;;;;;;;14.10;8.67;;;15.70;99.90;;;;;;5053177;28;20621;-72
2021/06/10 00:10:38;;;;;;;13.07;9.60;;;15.70;99.90;;;;;;5023916;28;20482;-74
2021/06/10 00:13:04;;;;;;;14.80;10.07;;;15.80;99.90;;;;;;5033232;28;20420;-73
2021/06/10 00:15:32;;;;;;;16.07;9.40;;;15.90;99.90;;;;;;5033272;28;20500;-74
2021/06/10 00:17:59;;;;;;;10.00;7.67;;;15.90;99.90;;;;;;5033082;28;20793;-70
2021/06/10 00:20:28;;;;;;;13.50;9.27;;;15.90;99.90;;;;;;5042195;28;20500;-74
2021/06/10 00:22:55;;;;;;;12.27;8.33;;;15.80;99.90;;;;;;5053401;28;20403;-69
2021/06/10 00:25:21;;;;;;;11.43;8.30;;;15.80;99.90;;;;;;5053040;28;20452;-74
2021/06/10 00:27:48;;;;;;;14.63;9.20;;;15.70;99.90;;;;;;5052796;28;20434;-70
2021/06/10 00:30:17;;;;;;;9.00;7.50;;;15.60;99.90;;;;;;5045327;28;21185;-73
2021/06/10 00:32:44;;;;;;;13.13;9.30;;;15.60;99.90;;;;;;5033163;28;20458;-70
2021/06/10 00:35:10;;;;;;;10.67;7.37;;;15.50;99.90;;;;;;5033229;28;20451;-73
2021/06/10 00:37:36;;;;;;;12.83;9.20;;;15.50;99.90;;;;;;5032884;28;20466;-72
2021/06/10 00:40:04;;;;;;;10.70;8.20;;;15.40;99.90;;;;;;5051770;28;20964;-72
2021/06/10 00:42:29;;;;;;;10.80;7.50;;;15.40;99.90;;;;;;5033602;28;20446;-71
2021/06/10 00:44:55;;;;;;;21.67;10.73;;;15.40;99.90;;;;;;5033185;28;20954;-70
2021/06/10 00:47:21;;;;;;;13.97;8.43;;;15.40;99.90;;;;;;5032826;28;20182;-69
2021/06/10 00:49:47;;;;;;;12.97;8.87;;;15.30;99.90;;;;;;5015436;28;20201;-71
2021/06/10 00:52:13;;;;;;;16.07;8.67;;;15.30;99.90;;;;;;5031190;28;20506;-72
2021/06/10 00:54:39;;;;;;;21.10;10.10;;;15.30;99.90;;;;;;5053042;28;20403;-68
2021/06/10 00:57:05;;;;;;;27.83;8.77;;;15.20;99.90;;;;;;5052628;28;20407;-69
2021/06/10 00:59:31;;;;;;;13.07;8.70;;;15.20;99.90;;;;;;5046197;28;20530;-69
2021/06/10 01:01:57;;;;;;;19.57;8.70;;;15.20;99.90;;;;;;5033081;28;20443;-74
2021/06/10 01:04:22;;;;;;;13.70;7.67;;;15.20;99.90;;;;;;5034937;28;20204;-69
2021/06/10 01:06:59;;;;;;;25.27;10.13;;;15.20;99.90;;;;;;5036397;28;20222;-74
2021/06/10 01:09:35;;;;;;;14.80;9.17;;;15.20;99.90;;;;;;5041684;28;20202;-73
2021/06/10 01:12:04;;;;;;;20.20;8.57;;;15.20;99.90;;;;;;5056901;28;20404;-73
2021/06/10 01:14:40;;;;;;;10.87;7.97;;;15.20;99.90;;;;;;5038836;28;20444;-70
2021/06/10 01:17:07;;;;;;;25.57;9.27;;;15.20;99.90;;;;;;5056134;28;20492;-73
2021/06/10 01:19:42;;;;;;;8.97;7.40;;;15.10;99.90;;;;;;5049661;28;20438;-70
2021/06/10 01:22:30;;;;;;;9.40;7.47;;;15.10;99.90;;;;;;5036284;28;20512;-73
2021/06/10 01:25:15;;;;;;;15.07;7.10;;;15.10;99.90;;;;;;5036522;28;20955;-71
2021/06/10 01:27:51;;;;;;;17.20;9.07;;;15.20;99.90;;;;;;5036032;28;20428;-69
2021/06/10 01:30:27;;;;;;;19.23;9.40;;;15.20;99.90;;;;;;5048019;28;20442;-71
2021/06/10 01:32:57;;;;;;;11.67;7.83;;;15.20;99.90;;;;;;5038165;28;20480;-70
2021/06/10 01:35:25;;;;;;;12.87;8.97;;;15.30;99.90;;;;;;5036140;28;20423;-73
2021/06/10 01:37:53;;;;;;;14.13;8.37;;;15.30;99.90;;;;;;5035910;28;20424;-70
2021/06/10 01:40:22;;;;;;;12.33;8.63;;;15.30;99.90;;;;;;5035836;28;20444;-72
2021/06/10 01:42:48;;;;;;;8.33;7.40;;;15.30;99.90;;;;;;5036183;28;20535;-70
2021/06/10 01:45:14;;;;;;;10.43;8.03;;;15.30;99.90;;;;;;5036079;28;20971;-72
2021/06/10 01:47:42;;;;;;;8.63;6.83;;;15.30;99.90;;;;;;5054318;28;20411;-69
2021/06/10 01:50:09;;;;;;;9.80;7.27;;;15.30;99.90;;;;;;5037991;28;20426;-72
2021/06/10 01:52:37;;;;;;;16.23;8.53;;;15.20;99.90;;;;;;5055771;28;20811;-69
2021/06/10 01:55:07;;;;;;;11.57;7.50;;;15.10;99.90;;;;;;5055853;28;20757;-70
2021/06/10 01:57:33;;;;;;;14.10;9.60;;;15.10;99.90;;;;;;5036904;28;20457;-69
2021/06/10 02:00:01;;;;;;;8.03;6.83;;;15.00;99.90;;;;;;5035913;28;20419;-72
2021/06/10 02:02:27;;;;;;;11.67;8.63;;;15.00;99.90;;;;;;5035723;28;20908;-70
2021/06/10 02:04:54;;;;;;;12.43;7.50;;;15.00;99.90;;;;;;5035628;28;20466;-71
2021/06/10 02:07:21;;;;;;;13.93;9.70;;;15.00;99.90;;;;;;5049543;28;20419;-70
2021/06/10 02:09:47;;;;;;;11.50;7.80;;;14.90;99.90;;;;;;5055398;28;20426;-70
2021/06/10 02:12:13;;;;;;;11.60;7.50;;;14.90;99.90;;;;;;5055427;28;20759;-70
2021/06/10 02:14:42;;;;;;;11.90;8.50;;;14.80;99.90;;;;;;5037355;28;20409;-68
2021/06/10 02:17:08;;;;;;;11.30;7.67;;;14.80;99.90;;;;;;5039819;28;20437;-70
2021/06/10 02:19:36;;;;;;;11.87;8.30;;;14.80;99.90;;;;;;5035245;28;20423;-68
2021/06/10 02:22:02;;;;;;;16.83;7.50;;;14.80;99.90;;;;;;5035205;28;20792;-71
2021/06/10 02:24:27;;;;;;;13.20;7.93;;;14.80;99.90;;;;;;5017541;28;20487;-69
2021/06/10 02:26:53;;;;;;;12.80;9.27;;;14.80;99.90;;;;;;5035891;28;20852;-71
2021/06/10 02:29:19;;;;;;;11.10;7.00;;;14.70;99.90;;;;;;5035130;28;20270;-68
2021/06/10 02:31:44;;;;;;;9.90;7.33;;;14.70;99.90;;;;;;5035462;28;20263;-71
2021/06/10 02:34:10;;;;;;;13.63;9.20;;;14.70;99.90;;;;;;5020164;28;20216;-70
2021/06/10 02:36:39;;;;;;;13.00;8.07;;;14.70;99.90;;;;;;5036411;28;20219;-71
2021/06/10 02:39:08;;;;;;;8.97;6.67;;;14.60;99.90;;;;;;5054803;28;20198;-69
2021/06/10 02:41:38;;;;;;;8.70;6.80;;;14.60;99.90;;;;;;5054849;28;20405;-71
2021/06/10 02:44:06;;;;;;;19.73;7.53;;;14.60;99.90;;;;;;5053462;28;20991;-70
2021/06/10 02:46:33;;;;;;;43.70;9.03;;;14.60;99.90;;;;;;5034496;28;20423;-70
2021/06/10 02:48:59;;;;;;;14.13;6.97;;;14.60;99.90;;;;;;5034342;28;20456;-69
2021/06/10 02:51:30;;;;;;;18.43;8.00;;;14.60;99.90;;;;;;5034608;28;20399;-69
2021/06/10 02:53:58;;;;;;;18.13;8.07;;;14.50;99.90;;;;;;5034643;28;20409;-71
2021/06/10 02:56:24;;;;;;;15.40;6.10;;;14.50;99.90;;;;;;5026603;28;21242;-68
2021/06/10 02:58:52;;;;;;;12.87;8.17;;;14.40;99.90;;;;;;5036501;28;20413;-68
2021/06/10 03:01:19;;;;;;;12.10;6.77;;;14.40;99.90;;;;;;5046390;28;20462;-68
2021/06/10 03:03:45;;;;;;;5.53;4.80;;;14.40;99.90;;;;;;5034799;28;20443;-68
2021/06/10 03:06:11;;;;;;;28.07;7.50;;;14.40;99.90;;;;;;5016726;28;20425;-69
2021/06/10 03:08:37;;;;;;;12.60;7.20;;;14.40;99.90;;;;;;5034311;28;20448;-69
2021/06/10 03:11:05;;;;;;;11.50;7.50;;;14.40;99.90;;;;;;5038232;28;20241;-67
2021/06/10 03:13:33;;;;;;;30.73;7.10;;;14.40;99.90;;;;;;5036288;28;20406;-71
2021/06/10 03:16:01;;;;;;;23.47;7.90;;;14.40;99.90;;;;;;5054338;28;20409;-67
2021/06/10 03:18:28;;;;;;;25.53;8.10;;;14.40;99.90;;;;;;5036767;28;20414;-69
2021/06/10 03:20:57;;;;;;;16.33;7.60;;;14.40;99.90;;;;;;5051873;28;20590;-68
2021/06/10 03:23:23;;;;;;;13.90;7.77;;;14.40;99.90;;;;;;5016945;28;20469;-69
2021/06/10 03:25:49;;;;;;;21.67;8.20;;;14.40;99.90;;;;;;5033994;28;20455;-69
2021/06/10 03:28:15;;;;;;;9.30;6.87;;;14.50;99.90;;;;;;5032951;28;20182;-70
2021/06/10 03:30:41;;;;;;;9.10;6.23;;;14.50;99.90;;;;;;5034050;28;20418;-68
2021/06/10 03:33:06;;;;;;;11.83;7.87;;;14.50;99.90;;;;;;5036104;28;20415;-70
2021/06/10 03:35:37;;;;;;;16.60;7.40;;;14.40;99.90;;;;;;5054012;28;20206;-70
2021/06/10 03:38:06;;;;;;;36.03;9.90;;;14.50;99.90;;;;;;5053481;28;20479;-68
2021/06/10 03:40:34;;;;;;;12.03;6.33;;;14.50;99.90;;;;;;5023740;28;20786;-69
2021/06/10 03:43:01;;;;;;;15.30;5.93;;;14.50;99.90;;;;;;5033917;28;20478;-67
2021/06/10 03:45:28;;;;;;;9.50;7.53;;;14.50;99.90;;;;;;5033684;28;20450;-69
2021/06/10 03:47:54;;;;;;;18.67;7.33;;;14.50;99.90;;;;;;5015569;28;20494;-66
2021/06/10 03:50:19;;;;;;;16.80;8.20;;;14.50;99.90;;;;;;5042359;28;20439;-70
2021/06/10 03:52:45;;;;;;;30.73;7.67;;;14.50;99.90;;;;;;5053193;28;20414;-68
2021/06/10 03:55:12;;;;;;;10.20;7.10;;;14.50;99.90;;;;;;5053764;28;20182;-71
2021/06/10 03:57:38;;;;;;;14.23;6.10;;;14.40;99.90;;;;;;5053145;28;20171;-68
2021/06/10 04:00:07;;;;;;;13.40;7.90;;;14.50;99.90;;;;;;5046448;28;20582;-70
2021/06/10 04:02:32;;;;;;;9.93;8.70;;;14.50;99.90;;;;;;5033540;28;20426;-68
2021/06/10 04:04:58;;;;;;;12.47;8.00;;;14.50;99.90;;;;;;5015713;28;20496;-69
2021/06/10 04:07:24;;;;;;;10.77;8.23;;;14.50;99.90;;;;;;5033222;28;20181;-69
2021/06/10 04:09:49;;;;;;;12.13;9.33;;;14.60;99.90;;;;;;5037960;28;20234;-68
2021/06/10 04:12:15;;;;;;;11.20;7.53;;;14.80;99.90;;;;;;5035530;28;20229;-68
2021/06/10 04:14:41;;;;;;;10.60;8.40;;;15.00;99.90;;;;;;5053402;28;20180;-70
2021/06/10 04:17:07;;;;;;;11.30;8.53;;;15.20;99.90;;;;;;5052957;28;20184;-69
2021/06/10 04:19:32;;;;;;;14.40;9.57;;;15.40;99.90;;;;;;5037470;28;20774;-67
2021/06/10 04:21:58;;;;;;;11.10;8.77;;;15.60;99.90;;;;;;5033935;28;20255;-69
2021/06/10 04:24:23;;;;;;;10.90;8.53;;;15.70;99.90;;;;;;5033942;28;20687;-68
2021/06/10 04:26:49;;;;;;;16.40;8.90;;;16.00;99.90;;;;;;5033263;28;20180;-70
2021/06/10 04:29:15;;;;;;;10.57;7.70;;;16.10;99.90;;;;;;5045751;28;20208;-68
2021/06/10 04:31:41;;;;;;;10.37;8.60;;;16.00;99.90;;;;;;5035592;28;20174;-70
2021/06/10 04:34:07;;;;;;;9.27;7.40;;;16.00;99.90;;;;;;5053378;28;20177;-69
2021/06/10 04:36:32;;;;;;;14.27;7.00;;;16.00;99.90;;;;;;5049665;28;20433;-71
2021/06/10 04:38:58;;;;;;;12.17;8.77;;;16.10;99.90;;;;;;5034506;28;20550;-68
2021/06/10 04:41:24;;;;;;;10.10;8.10;;;16.10;99.90;;;;;;5047231;28;20182;-68
2021/06/10 04:43:49;;;;;;;11.20;7.40;;;16.20;99.90;;;;;;5057171;28;20189;-70
2021/06/10 04:46:15;;;;;;;11.70;7.50;;;16.20;99.90;;;;;;5056509;28;20184;-68
2021/06/10 04:48:40;;;;;;;9.07;7.40;;;16.20;99.90;;;;;;5056858;28;20188;-71
2021/06/10 04:51:06;;;;;;;10.07;6.93;;;16.20;99.90;;;;;;5049599;28;20220;-70
2021/06/10 04:53:32;;;;;;;8.73;7.83;;;16.20;99.90;;;;;;5036958;28;20667;-71
2021/06/10 04:55:58;;;;;;;13.17;9.53;;;16.30;99.90;;;;;;5036992;28;20635;-69
2021/06/10 04:58:24;;;;;;;14.23;8.83;;;16.40;99.90;;;;;;5019061;28;20441;-72
2021/06/10 05:00:51;;;;;;;10.43;7.53;;;16.50;99.90;;;;;;5041049;28;20198;-67
2021/06/10 05:03:21;;;;;;;9.50;7.87;;;16.60;99.90;;;;;;5038837;28;20431;-72
2021/06/10 05:05:48;;;;;;;8.50;7.33;;;16.60;99.90;;;;;;5051073;28;20476;-70
2021/06/10 05:08:14;;;;;;;10.40;7.50;;;16.70;99.90;;;;;;5036322;28;20400;-71
2021/06/10 05:10:39;;;;;;;12.60;7.67;;;16.70;99.90;;;;;;5018694;28;20439;-71
2021/06/10 05:13:05;;;;;;;9.70;7.60;;;16.70;99.90;;;;;;5036547;28;20606;-71
2021/06/10 05:15:31;;;;;;;9.53;7.33;;;16.80;99.90;;;;;;5037987;28;20178;-73
2021/06/10 05:17:56;;;;;;;8.43;7.30;;;16.90;99.90;;;;;;5055303;28;20177;-73
2021/06/10 05:20:23;;;;;;;7.37;6.60;;;17.00;99.90;;;;;;5055833;28;20198;-71
2021/06/10 05:22:49;;;;;;;8.87;6.80;;;17.10;99.90;;;;;;5056304;28;20174;-69
2021/06/10 05:25:15;;;;;;;7.07;5.80;;;17.20;99.90;;;;;;5055968;28;20466;-73
2021/06/10 05:27:40;;;;;;;6.10;5.50;;;17.30;99.90;;;;;;5038824;28;20266;-71
2021/06/10 05:30:07;;;;;;;6.57;5.50;;;17.40;99.90;;;;;;5056572;28;20432;-72
2021/06/10 05:32:33;;;;;;;6.70;5.97;;;17.70;99.90;;;;;;5056147;28;20529;-70
2021/06/10 05:34:59;;;;;;;6.50;5.90;;;18.00;99.90;;;;;;5056314;28;20409;-73
2021/06/10 05:37:25;;;;;;;6.70;6.00;;;18.20;99.90;;;;;;5019066;28;20193;-72
2021/06/10 05:39:50;;;;;;;6.73;5.50;;;18.30;99.90;;;;;;5036090;28;20441;-72
2021/06/10 05:42:16;;;;;;;6.70;5.33;;;18.40;99.90;;;;;;5036111;28;20300;-69
2021/06/10 05:44:43;;;;;;;6.13;5.03;;;18.70;99.90;;;;;;5035800;28;20213;-68
2021/06/10 05:47:10;;;;;;;6.47;5.57;;;18.80;99.90;;;;;;5050763;28;20280;-69
2021/06/10 05:49:35;;;;;;;6.60;5.77;;;19.00;99.90;;;;;;5055297;28;20398;-68
2021/06/10 05:52:02;;;;;;;5.47;4.93;;;19.20;99.90;;;;;;5055184;28;20408;-68
2021/06/10 05:54:27;;;;;;;6.23;5.07;;;19.60;99.90;;;;;;5055638;28;20228;-68
2021/06/10 05:56:53;;;;;;;5.60;5.07;;;20.00;99.90;;;;;;5042909;28;20421;-68
2021/06/10 05:59:19;;;;;;;6.80;6.10;;;20.30;99.90;;;;;;5043852;28;20194;-69
2021/06/10 06:01:45;;;;;;;6.40;5.80;;;20.60;99.90;;;;;;5035696;28;20190;-69
2021/06/10 06:04:11;;;;;;;5.07;4.50;;;20.50;99.90;;;;;;5035728;28;20444;-71
2021/06/10 06:06:38;;;;;;;7.33;5.60;;;20.40;99.90;;;;;;5017660;28;20167;-68
2021/06/10 06:09:07;;;;;;;7.80;5.90;;;20.50;99.90;;;;;;5028131;28;20666;-69
2021/06/10 06:11:33;;;;;;;5.80;5.30;;;20.50;99.90;;;;;;5055804;28;20757;-69
2021/06/10 06:14:09;;;;;;;7.00;5.63;;;20.50;99.90;;;;;;5055603;28;20398;-69
2021/06/10 06:16:42;;;;;;;6.23;5.33;;;20.40;99.90;;;;;;5054906;28;20410;-69
2021/06/10 06:19:11;;;;;;;6.63;5.87;;;20.40;99.90;;;;;;5044866;28;20423;-68
2021/06/10 06:21:36;;;;;;;8.63;5.57;;;20.40;99.90;;;;;;5027989;28;20445;-69
2021/06/10 06:24:03;;;;;;;5.97;5.30;;;20.50;99.90;;;;;;5034824;28;20456;-69
2021/06/10 06:26:29;;;;;;;6.57;5.43;;;20.60;99.90;;;;;;5034736;28;20162;-69
2021/06/10 06:28:58;;;;;;;6.47;4.93;;;20.70;99.90;;;;;;5035171;28;20431;-69
2021/06/10 06:31:24;;;;;;;8.80;6.77;;;20.80;99.90;;;;;;5034959;28;20178;-69
2021/06/10 06:33:50;;;;;;;5.50;4.77;;;20.90;99.90;;;;;;5035083;28;20478;-69
2021/06/10 06:36:15;;;;;;;6.70;5.53;;;21.00;99.90;;;;;;5033482;28;20494;-67
2021/06/10 06:38:41;;;;;;;7.37;6.50;;;21.10;99.90;;;;;;5035077;28;20182;-67
2021/06/10 06:41:07;;;;;;;5.83;5.30;;;21.20;99.90;;;;;;5017053;28;20175;-70
2021/06/10 06:43:32;;;;;;;6.00;5.37;;;21.20;99.90;;;;;;5034772;28;20173;-67
2021/06/10 06:45:59;;;;;;;8.47;5.80;;;21.20;99.90;;;;;;5034517;28;20216;-70
2021/06/10 06:48:25;;;;;;;5.63;5.00;;;21.40;99.90;;;;;;5034295;28;20208;-67
2021/06/10 06:50:50;;;;;;;7.30;5.43;;;21.60;99.90;;;;;;5034276;28;20516;-67
2021/06/10 06:53:16;;;;;;;6.60;5.90;;;21.80;99.90;;;;;;5034631;28;20496;-69
2021/06/10 06:55:44;;;;;;;6.60;5.93;;;21.90;99.90;;;;;;5016764;28;20193;-69
2021/06/10 06:58:10;;;;;;;7.90;6.00;;;22.00;99.90;;;;;;5042583;28;20254;-68
2021/06/10 07:00:36;;;;;;;7.23;6.37;;;22.20;99.90;;;;;;5046225;28;20441;-68
2021/06/10 07:03:02;;;;;;;7.10;6.23;;;22.40;99.90;;;;;;5037495;28;20948;-68
2021/06/10 07:05:27;;;;;;;7.10;6.00;;;22.60;99.90;;;;;;5052744;28;20460;-67
2021/06/10 07:07:53;;;;;;;6.07;4.80;;;22.70;99.90;;;;;;5052916;28;20173;-69
2021/06/10 07:10:19;;;;;;;8.70;6.07;;;22.80;99.90;;;;;;5051620;28;21015;-68
2021/06/10 07:12:45;;;;;;;5.73;4.77;;;22.90;99.90;;;;;;5045353;28;20180;-70
2021/06/10 07:15:10;;;;;;;6.30;4.37;;;22.90;99.90;;;;;;5053979;28;20184;-70
2021/06/10 07:17:36;;;;;;;8.70;5.90;;;23.20;99.90;;;;;;5053278;28;20175;-70
2021/06/10 07:20:04;;;;;;;7.33;5.90;;;23.40;99.90;;;;;;5053683;28;20205;-72
2021/06/10 07:22:30;;;;;;;5.97;4.53;;;23.70;99.90;;;;;;5032117;28;20414;-72
2021/06/10 07:24:59;;;;;;;6.50;4.53;;;23.90;99.90;;;;;;5034732;28;20451;-71
2021/06/10 07:27:25;;;;;;;8.03;5.77;;;24.10;99.90;;;;;;5052853;28;20387;-69
2021/06/10 07:29:53;;;;;;;8.90;5.53;;;24.50;99.90;;;;;;5044601;28;20961;-70
2021/06/10 07:32:19;;;;;;;6.23;4.53;;;25.00;99.90;;;;;;5033811;28;20190;-72
2021/06/10 07:34:44;;;;;;;8.83;5.87;;;25.70;99.90;;;;;;5033704;28;20387;-69
2021/06/10 07:37:10;;;;;;;7.80;5.27;;;26.20;99.90;;;;;;5016173;28;20261;-68
2021/06/10 07:39:36;;;;;;;8.50;5.37;;;27.00;99.90;;;;;;5039889;28;20201;-70
2021/06/10 07:42:02;;;;;;;7.30;5.10;;;27.80;98.40;;;;;;5053760;28;20570;-70
2021/06/10 07:44:29;;;;;;;6.80;4.50;;;28.10;96.90;;;;;;5035724;28;20280;-70
2021/06/10 07:46:55;;;;;;;5.43;4.90;;;28.30;95.50;;;;;;5053477;28;20378;-68
2021/06/10 07:49:21;;;;;;;6.13;5.63;;;29.10;95.30;;;;;;5035595;28;20524;-66
2021/06/10 07:51:47;;;;;;;5.53;5.10;;;29.70;94.10;;;;;;5033640;28;20559;-70
2021/06/10 07:54:13;;;;;;;6.27;5.70;;;30.00;92.60;;;;;;5033784;28;20174;-75
2021/06/10 07:56:38;;;;;;;6.13;5.63;;;30.50;91.80;;;;;;5033280;28;20441;-75
2021/06/10 07:59:05;;;;;;;6.50;5.80;;;31.00;91.30;;;;;;5048214;28;20198;-76
2021/06/10 08:01:31;;;;;;;6.90;6.23;;;31.50;90.80;;;;;;5035548;28;20184;-74
2021/06/10 08:03:57;;;;;;;6.60;6.10;;;31.50;89.40;;;;;;5053450;28;20541;-75
2021/06/10 08:06:23;;;;;;;6.80;6.20;;;31.80;89.40;;;;;;5052890;28;20829;-75
2021/06/10 08:08:49;;;;;;;6.07;5.57;;;32.30;87.40;;;;;;5023539;28;20204;-75
2021/06/10 08:11:16;;;;;;;7.00;6.30;;;32.80;85.20;;;;;;5033454;28;20453;-75
2021/06/10 08:13:41;;;;;;;7.77;7.17;;;33.00;82.10;;;;;;5032880;28;20412;-68
2021/06/10 08:16:07;;;;;;;6.00;5.50;;;33.00;84.50;;;;;;5038007;28;20436;-69
2021/06/10 08:18:33;;;;;;;6.30;5.80;;;33.50;81.50;;;;;;5032913;28;20309;-69
2021/06/10 08:21:00;;;;;;;5.70;5.20;;;33.80;78.60;;;;;;5033325;28;20201;-70
2021/06/10 08:23:27;;;;;;;6.47;5.97;;;34.00;80.80;;;;;;5033137;28;20173;-68
2021/06/10 08:25:59;;;;;;;6.10;5.60;;;34.00;76.70;;;;;;5015472;28;20496;-66
2021/06/10 08:28:25;;;;;;;6.17;5.67;;;34.20;77.00;;;;;;5032807;28;20392;-71
2021/06/10 08:30:51;;;;;;;6.43;5.93;;;33.90;75.50;;;;;;5033117;28;20441;-68
2021/06/10 08:33:18;;;;;;;6.97;6.10;;;33.90;76.80;;;;;;5017670;28;20504;-68
2021/06/10 08:35:43;;;;;;;10.63;6.13;;;33.80;74.80;;;;;;5033146;28;20627;-70
2021/06/10 08:38:10;;;;;;;6.00;5.50;;;33.70;75.30;;;;;;5032863;28;20483;-69
2021/06/10 08:40:37;;;;;;;6.63;6.13;;;33.80;77.20;;;;;;5033112;28;20202;-70
2021/06/10 08:43:05;;;;;;;6.10;5.70;;;34.30;77.20;;;;;;5033042;28;20927;-67
2021/06/10 08:45:31;;;;;;;6.40;5.97;;;35.10;75.80;;;;;;5033101;28;20420;-69
2021/06/10 08:48:01;;;;;;;6.47;5.93;;;36.00;73.10;;;;;;5032680;28;20503;-66
2021/06/10 08:50:27;;;;;;;6.10;5.70;;;36.70;69.10;;;;;;5033194;28;20522;-69
2021/06/10 08:52:58;;;;;;;6.67;6.27;;;36.90;66.30;;;;;;5033115;28;20413;-71
2021/06/10 08:55:26;;;;;;;7.50;6.80;;;37.00;65.50;;;;;;5032806;28;20503;-70
2021/06/10 08:57:52;;;;;;;6.20;5.70;;;37.10;66.40;;;;;;5032621;28;20420;-70
2021/06/10 09:00:22;;;;;;;7.20;6.70;;;37.10;65.60;;;;;;5032861;28;20850;-67
2021/06/10 09:03:20;;;;;;;6.90;6.40;;;36.90;62.90;;;;;;5032923;28;20439;-68
2021/06/10 09:06:00;;;;;;;7.10;6.60;;;37.00;63.00;;;;;;5031825;28;20799;-66
2021/06/10 09:08:26;;;;;;;6.07;5.67;;;36.80;62.20;;;;;;5032641;28;20774;-71
2021/06/10 09:11:03;;;;;;;7.43;6.83;;;36.40;64.60;;;;;;5032595;28;20433;-68
2021/06/10 09:13:42;;;;;;;7.97;7.20;;;36.00;64.10;;;;;;5032920;28;20170;-72
2021/06/10 09:16:19;;;;;;;6.83;6.33;;;35.50;64.60;;;;;;5032542;28;20456;-68
2021/06/10 09:18:57;;;;;;;8.00;7.30;;;35.80;64.80;;;;;;5032577;28;20488;-67
2021/06/10 09:21:31;;;;;;;6.90;6.40;;;35.80;62.90;;;;;;5032591;28;20431;-70
2021/06/10 09:24:14;;;;;;;6.93;6.43;;;36.00;63.40;;;;;;5032663;28;20411;-71
2021/06/10 09:26:40;;;;;;;7.33;6.73;;;36.50;62.30;;;;;;5036062;28;20431;-70
2021/06/10 09:29:07;;;;;;;9.07;8.37;;;36.10;62.10;;;;;;5036370;28;20425;-67
2021/06/10 09:31:34;;;;;;;8.10;7.50;;;36.10;62.00;;;;;;5036130;28;20622;-70
2021/06/10 09:34:09;;;;;;;7.47;6.90;;;35.90;62.20;;;;;;5036111;28;20448;-70
2021/06/10 09:36:45;;;;;;;7.47;6.87;;;35.80;62.40;;;;;;5036000;28;20772;-73
2021/06/10 09:39:14;;;;;;;8.20;7.50;;;35.80;62.30;;;;;;5036117;28;20451;-71
2021/06/10 09:42:25;;;;;;;6.27;5.87;;;35.90;63.20;;;;;;5035908;28;20409;-74
2021/06/10 09:44:54;;;;;;;6.93;6.33;;;36.20;63.50;;;;;;4975103;28;20427;-73
2021/06/10 09:47:32;;;;;;;7.47;6.87;;;36.10;63.50;;;;;;4974667;28;20787;-74
2021/06/10 09:50:35;;;;;;;6.37;5.90;;;36.30;62.40;;;;;;4975119;28;20447;-71
2021/06/10 09:53:35;;;;;;;7.00;6.07;;;36.70;62.40;;;;;;4975445;28;20439;-74
2021/06/10 09:56:06;;;;;;;7.50;6.80;;;37.00;59.80;;;;;;4970918;28;20483;-73
2021/06/10 09:58:42;;;;;;;7.60;7.00;;;37.10;59.20;;;;;;4975100;28;20806;-75
2021/06/10 10:01:14;;;;;;;6.90;6.40;;;36.70;58.90;;;;;;4958717;28;20427;-75
2021/06/10 10:03:44;;;;;;;7.63;7.10;;;36.40;59.10;;;;;;4974828;28;20527;-72
2021/06/10 10:06:22;;;;;;;7.20;6.60;;;36.10;59.20;;;;;;4958358;28;20412;-71
2021/06/10 10:08:53;;;;;;;6.50;6.00;;;35.90;61.80;;;;;;4974451;28;21028;-73
2021/06/10 10:11:21;;;;;;;7.13;6.53;;;36.10;62.10;;;;;;4953895;28;20437;-72
2021/06/10 10:13:50;;;;;;;6.00;5.60;;;36.10;59.10;;;;;;4952023;29;20456;-71
2021/06/10 10:16:19;;;;;;;6.40;6.00;;;35.90;58.80;;;;;;5001435;28;20453;-73
2021/06/10 10:18:45;;;;;;;6.40;5.90;;;35.50;58.30;;;;;;4998561;28;20968;-72
2021/06/10 10:21:11;;;;;;;6.73;6.23;;;35.40;60.50;;;;;;5015521;28;20437;-71
2021/06/10 10:23:36;;;;;;;6.37;5.87;;;35.30;58.70;;;;;;5015601;28;20218;-70
2021/06/10 10:26:05;;;;;;;6.80;6.30;;;35.50;59.10;;;;;;5015318;28;20911;-70
2021/06/10 10:28:34;;;;;;;6.70;6.20;;;35.60;58.60;;;;;;5015268;28;20222;-71
2021/06/10 10:31:00;;;;;;;7.10;6.53;;;35.60;59.30;;;;;;5015439;28;20402;-72
2021/06/10 10:33:27;;;;;;;7.80;7.10;;;35.70;59.40;;;;;;5016270;28;20402;-72
2021/06/10 10:35:57;;;;;;;8.10;7.40;;;35.30;59.60;;;;;;5050530;28;20422;-74
2021/06/10 10:38:34;;;;;;;8.67;7.97;;;35.20;58.90;;;;;;5019677;28;20534;-70
2021/06/10 10:41:03;;;;;;;7.20;6.70;;;35.20;61.90;;;;;;5035017;28;20409;-70
2021/06/10 10:43:30;;;;;;;8.47;7.77;;;35.60;63.00;;;;;;5050228;28;20481;-71
2021/06/10 10:46:18;;;;;;;8.30;7.60;;;35.90;59.80;;;;;;5032253;28;20771;-71
2021/06/10 10:48:49;;;;;;;8.83;8.20;;;35.80;58.70;;;;;;5054489;28;20440;-69
2021/06/10 10:51:26;;;;;;;7.70;7.10;;;35.60;59.20;;;;;;5045210;28;20496;-71
2021/06/10 10:53:56;;;;;;;9.27;8.47;;;35.40;60.40;;;;;;5049101;28;20398;-72
2021/06/10 10:56:42;;;;;;;7.63;6.93;;;35.20;60.00;;;;;;5054215;28;20446;-71
2021/06/10 10:59:18;;;;;;;9.03;8.33;;;34.60;60.80;;;;;;5054408;28;20393;-71
2021/06/10 11:02:10;;;;;;;8.13;7.50;;;34.30;60.60;;;;;;5054349;28;20803;-71
2021/06/10 11:04:55;;;;;;;8.87;8.17;;;34.20;62.00;;;;;;5046520;28;20833;-71
2021/06/10 11:07:36;;;;;;;7.20;6.70;;;34.40;63.10;;;;;;5053991;28;20387;-73
2021/06/10 11:10:10;;;;;;;10.00;9.20;;;34.50;62.40;;;;;;5054595;28;20500;-71
2021/06/10 11:12:47;;;;;;;8.87;8.17;;;34.00;63.00;;;;;;5036476;28;20432;-72
2021/06/10 11:15:15;;;;;;;7.53;6.93;;;33.20;65.10;;;;;;5036338;28;20513;-70
2021/06/10 11:17:46;;;;;;;8.13;7.53;;;32.40;68.70;;;;;;5053727;28;20379;-71
2021/06/10 11:20:16;;;;;;;10.10;9.10;;;31.90;67.00;;;;;;5053844;28;20490;-71
2021/06/10 11:22:46;;;;;;;8.13;7.33;;;31.20;68.30;;;;;;5054318;28;20385;-71
2021/06/10 11:25:33;;;;;;;9.00;8.30;;;30.60;68.60;;;;;;5036056;28;21006;-72
2021/06/10 11:28:11;;;;;;;8.77;7.97;;;30.30;70.80;;;;;;5052986;28;20928;-71
2021/06/10 11:30:41;;;;;;;8.67;7.80;;;29.90;73.50;;;;;;5053743;28;20411;-72
2021/06/10 11:33:08;;;;;;;9.93;8.23;;;29.80;73.40;;;;;;5054051;28;20408;-71
2021/06/10 11:35:39;;;;;;;9.23;8.43;;;29.50;75.30;;;;;;5053620;28;20447;-73
2021/06/10 11:38:16;;;;;;;10.07;9.07;;;29.10;75.80;;;;;;5053343;28;20434;-71
2021/06/10 11:40:44;;;;;;;8.03;7.30;;;28.70;78.40;;;;;;5053429;28;20756;-71
2021/06/10 11:43:12;;;;;;;9.97;8.47;;;28.40;77.30;;;;;;5035951;28;20407;-73
2021/06/10 11:45:38;;;;;;;8.13;7.43;;;28.20;78.20;;;;;;5053515;28;20408;-71
2021/06/10 11:48:04;;;;;;;7.77;6.97;;;28.20;79.60;;;;;;5034486;28;20426;-70
2021/06/10 11:50:32;;;;;;;8.10;7.30;;;28.30;85.00;;;;;;5053389;28;20442;-72
2021/06/10 11:53:07;;;;;;;7.93;7.10;;;28.40;83.00;;;;;;5053320;28;20379;-70
2021/06/10 11:55:35;;;;;;;6.30;5.70;;;28.30;78.40;;;;;;5053449;28;20488;-71
2021/06/10 11:58:06;;;;;;;14.23;11.57;;;28.30;79.70;;;;;;5052960;28;20418;-70
2021/06/10 12:00:40;;;;;;;14.90;13.20;;;28.40;81.90;;;;;;5053294;28;20419;-71
2021/06/10 12:03:09;;;;;;;8.50;7.60;;;28.60;81.80;;;;;;5053452;28;20940;-69
2021/06/10 12:05:48;;;;;;;7.97;7.27;;;28.70;80.30;;;;;;5053165;28;20495;-70
2021/06/10 12:08:23;;;;;;;7.77;7.00;;;28.70;78.60;;;;;;5035055;28;20419;-71
2021/06/10 12:10:51;;;;;;;8.60;7.90;;;28.70;78.40;;;;;;5021539;28;20453;-70
2021/06/10 12:13:25;;;;;;;7.57;6.90;;;28.80;77.70;;;;;;5033521;28;20432;-72
2021/06/10 12:15:52;;;;;;;7.83;7.07;;;28.80;81.30;;;;;;5033139;28;20452;-71
2021/06/10 12:18:19;;;;;;;8.13;7.33;;;28.80;79.20;;;;;;5033060;28;20401;-69
2021/06/10 12:20:47;;;;;;;7.80;7.07;;;28.80;78.50;;;;;;5033103;28;20535;-72
2021/06/10 12:23:19;;;;;;;9.13;6.90;;;28.70;79.50;;;;;;5033437;28;20393;-71
2021/06/10 12:25:57;;;;;;;6.80;6.20;;;28.60;82.70;;;;;;5033276;28;20409;-72
2021/06/10 12:28:40;;;;;;;7.67;7.00;;;28.60;77.80;;;;;;5032959;28;20404;-72
2021/06/10 12:31:19;;;;;;;7.03;6.33;;;28.60;78.90;;;;;;5015292;28;20396;-73
2021/06/10 12:33:50;;;;;;;8.10;7.30;;;28.60;78.90;;;;;;5015302;28;20419;-70
2021/06/10 12:36:19;;;;;;;8.63;7.73;;;28.60;77.00;;;;;;5032729;28;20436;-70
2021/06/10 12:38:53;;;;;;;7.50;6.80;;;28.60;76.00;;;;;;5032853;28;20385;-70
2021/06/10 12:41:25;;;;;;;6.47;5.90;;;28.50;76.30;;;;;;5032934;28;20979;-71
2021/06/10 12:43:54;;;;;;;6.60;5.70;;;28.40;77.10;;;;;;5015243;28;20430;-71
2021/06/10 12:46:22;;;;;;;7.40;6.70;;;28.30;77.00;;;;;;5032568;28;20403;-73
2021/06/10 12:48:56;;;;;;;6.00;5.50;;;28.40;75.90;;;;;;5032808;28;20424;-72
2021/06/10 12:51:28;;;;;;;5.50;5.10;;;28.40;76.20;;;;;;5032835;28;20469;-71